Time;durP1;ratioP1;P1;durP2;ratioP2;P2;SDS_P1;SDS_P2;PMS_P1;PMS_P2;Temp;Humidity;BMP_temperature;BMP_pressure;BME280_temperature;BME280_humidity;BME280_pressure;Samples;Min_cycle;Max_cycle;Signal;HPM_P1;HPM_P2
2022/03/10 00:02:09;;;;;;;13.98;10.90;;;-1.90;99.90;;;;;;4969466;28;20109;-55
2022/03/10 00:04:38;;;;;;;16.83;10.18;;;-2.00;99.90;;;;;;4970738;28;20490;-56
2022/03/10 00:07:04;;;;;;;14.00;10.23;;;-2.10;99.90;;;;;;4970220;28;20029;-55
2022/03/10 00:09:32;;;;;;;11.18;9.57;;;-2.20;99.90;;;;;;4970609;28;20110;-56
2022/03/10 00:12:01;;;;;;;15.20;10.70;;;-2.20;99.90;;;;;;4970467;28;20027;-57
2022/03/10 00:14:27;;;;;;;14.10;10.50;;;-2.30;99.90;;;;;;4969377;28;20019;-56
2022/03/10 00:16:53;;;;;;;14.85;11.35;;;-2.30;99.90;;;;;;4970644;28;20026;-56
2022/03/10 00:19:19;;;;;;;16.73;10.48;;;-2.30;99.90;;;;;;4969766;28;20070;-56
2022/03/10 00:21:46;;;;;;;20.60;12.15;;;-2.30;99.90;;;;;;4970113;28;20063;-55
2022/03/10 00:24:11;;;;;;;12.98;10.40;;;-2.30;99.90;;;;;;4970067;28;20046;-54
2022/03/10 00:26:37;;;;;;;13.43;9.90;;;-2.30;99.90;;;;;;4970879;28;20022;-56
2022/03/10 00:29:06;;;;;;;17.92;11.77;;;-2.30;99.90;;;;;;4969396;28;20030;-57
2022/03/10 00:31:32;;;;;;;15.82;10.63;;;-2.40;99.90;;;;;;4969694;28;20371;-56
2022/03/10 00:33:58;;;;;;;17.55;11.90;;;-2.40;99.90;;;;;;4970209;28;20038;-55
2022/03/10 00:36:24;;;;;;;19.13;11.18;;;-2.40;99.90;;;;;;4969671;28;20035;-56
2022/03/10 00:38:50;;;;;;;14.98;10.50;;;-2.50;99.90;;;;;;4969052;28;20026;-55
2022/03/10 00:41:15;;;;;;;21.02;12.63;;;-2.50;99.90;;;;;;4970214;28;20031;-55
2022/03/10 00:43:41;;;;;;;20.40;12.70;;;-2.50;99.90;;;;;;4969321;28;20070;-56
2022/03/10 00:46:07;;;;;;;17.42;12.43;;;-2.50;99.90;;;;;;4970226;28;20031;-57
2022/03/10 00:48:33;;;;;;;17.98;13.00;;;-2.60;99.90;;;;;;4969376;28;20050;-55
2022/03/10 00:50:58;;;;;;;17.45;11.90;;;-2.50;99.90;;;;;;4970023;28;20057;-56
2022/03/10 00:53:24;;;;;;;29.67;14.95;;;-2.50;99.90;;;;;;4969598;28;20031;-56
2022/03/10 00:55:50;;;;;;;34.80;16.30;;;-2.50;99.90;;;;;;4970039;28;20516;-57
2022/03/10 00:58:15;;;;;;;19.90;12.73;;;-2.50;99.90;;;;;;4968803;28;20035;-57
2022/03/10 01:00:41;;;;;;;19.63;12.13;;;-2.50;99.90;;;;;;4969859;28;20514;-56
2022/03/10 01:03:07;;;;;;;21.38;10.82;;;-2.50;99.90;;;;;;4968996;28;20043;-57
2022/03/10 01:05:33;;;;;;;17.73;11.80;;;-2.40;99.90;;;;;;4969886;28;20050;-54
2022/03/10 01:07:59;;;;;;;21.38;12.77;;;-2.40;99.90;;;;;;4969942;28;20454;-55
2022/03/10 01:10:25;;;;;;;23.10;12.75;;;-2.40;99.90;;;;;;4983923;28;20035;-56
2022/03/10 01:12:51;;;;;;;31.10;18.48;;;-2.40;99.90;;;;;;4969145;28;20027;-56
2022/03/10 01:15:25;;;;;;;26.13;18.42;;;-2.40;99.90;;;;;;4968952;28;20027;-55
2022/03/10 01:17:51;;;;;;;29.45;20.95;;;-2.40;99.90;;;;;;4969280;28;20027;-55
2022/03/10 01:20:18;;;;;;;26.55;18.77;;;-2.40;99.90;;;;;;4969032;28;20025;-57
2022/03/10 01:22:43;;;;;;;22.85;15.27;;;-2.40;99.90;;;;;;4968333;28;20078;-56
2022/03/10 01:25:10;;;;;;;22.15;14.48;;;-2.30;99.90;;;;;;4969600;28;20023;-56
2022/03/10 01:27:36;;;;;;;19.42;12.48;;;-2.30;99.90;;;;;;4972061;28;20027;-56
2022/03/10 01:30:03;;;;;;;20.38;13.45;;;-2.30;99.90;;;;;;4987466;28;20039;-56
2022/03/10 01:32:29;;;;;;;23.30;13.57;;;-2.20;99.90;;;;;;4972312;28;20018;-57
2022/03/10 01:34:54;;;;;;;15.98;11.95;;;-2.20;99.90;;;;;;4973578;28;20414;-56
2022/03/10 01:37:20;;;;;;;20.50;12.45;;;-2.20;99.90;;;;;;4972652;28;20039;-57
2022/03/10 01:39:46;;;;;;;21.98;12.07;;;-2.10;99.90;;;;;;4973035;28;20058;-58
2022/03/10 01:42:12;;;;;;;19.85;13.13;;;-2.20;99.90;;;;;;4972978;28;20043;-57
2022/03/10 01:44:38;;;;;;;23.33;13.38;;;-2.20;99.90;;;;;;4973372;28;20146;-57
2022/03/10 01:47:05;;;;;;;19.33;13.05;;;-2.20;99.90;;;;;;4973495;28;20037;-57
2022/03/10 01:49:32;;;;;;;25.13;14.70;;;-2.30;99.90;;;;;;4972768;28;20918;-56
2022/03/10 01:51:58;;;;;;;20.33;12.95;;;-2.30;99.90;;;;;;4972633;28;20090;-57
2022/03/10 01:54:24;;;;;;;21.73;13.68;;;-2.30;99.90;;;;;;4987709;28;20034;-56
2022/03/10 01:56:51;;;;;;;20.40;13.05;;;-2.40;99.90;;;;;;4972832;28;20019;-55
2022/03/10 01:59:18;;;;;;;20.83;13.18;;;-2.40;99.90;;;;;;4973550;28;20039;-56
2022/03/10 02:01:44;;;;;;;20.95;13.15;;;-2.50;99.90;;;;;;4971092;28;20589;-57
2022/03/10 02:04:09;;;;;;;24.10;12.20;;;-2.50;99.90;;;;;;4972950;28;20129;-55
2022/03/10 02:06:36;;;;;;;17.80;12.38;;;-2.50;99.90;;;;;;4972466;28;20118;-56
2022/03/10 02:11:47;;;;;;;19.38;13.52;;;-2.50;99.90;;;;;;4971289;28;20034;-55
2022/03/10 02:19:42;;;;;;;21.70;13.57;;;-2.60;99.90;;;;;;4972268;28;20089;-55
2022/03/10 02:22:10;;;;;;;26.50;13.05;;;-2.70;99.90;;;;;;4972234;28;20038;-55
2022/03/10 02:24:37;;;;;;;19.75;12.50;;;-2.80;99.90;;;;;;4972072;28;20030;-54
2022/03/10 02:27:22;;;;;;;19.23;12.93;;;-2.90;99.90;;;;;;4972145;28;20031;-56
2022/03/10 02:29:49;;;;;;;23.40;13.48;;;-2.90;99.90;;;;;;4971452;28;20023;-57
2022/03/10 02:32:16;;;;;;;18.75;12.70;;;-3.00;99.90;;;;;;4972820;28;20030;-57
2022/03/10 02:34:42;;;;;;;18.95;12.68;;;-3.10;99.90;;;;;;4971896;28;20022;-58
2022/03/10 02:37:09;;;;;;;20.75;12.10;;;-3.10;99.90;;;;;;4971650;28;20027;-57
2022/03/10 02:39:35;;;;;;;22.98;12.80;;;-3.20;99.90;;;;;;4987324;28;20037;-56
2022/03/10 02:42:02;;;;;;;16.35;13.02;;;-3.30;99.90;;;;;;4971553;28;20434;-56
2022/03/10 02:44:28;;;;;;;20.90;12.55;;;-3.30;99.90;;;;;;4972247;28;20078;-57
2022/03/10 02:46:54;;;;;;;19.83;13.75;;;-3.40;99.90;;;;;;4971653;28;20031;-56
2022/03/10 02:49:20;;;;;;;19.88;13.68;;;-3.40;99.90;;;;;;4972396;28;20545;-57
2022/03/10 02:51:46;;;;;;;24.17;13.88;;;-3.50;99.90;;;;;;4971257;28;20023;-56
2022/03/10 02:54:11;;;;;;;22.05;13.07;;;-3.50;99.90;;;;;;4971952;28;20030;-55
2022/03/10 02:56:37;;;;;;;24.25;14.43;;;-3.60;99.90;;;;;;4971865;28;20034;-56
2022/03/10 02:59:03;;;;;;;22.25;13.43;;;-3.60;99.90;;;;;;4986252;28;20165;-56
2022/03/10 03:01:29;;;;;;;21.05;12.85;;;-3.50;99.90;;;;;;4970089;28;20359;-56
2022/03/10 03:03:55;;;;;;;23.15;14.68;;;-3.50;99.90;;;;;;4971143;28;20545;-56
2022/03/10 03:06:21;;;;;;;22.98;13.52;;;-3.50;99.90;;;;;;4986039;28;20182;-55
2022/03/10 03:08:47;;;;;;;21.20;13.57;;;-3.40;99.90;;;;;;4970103;28;20109;-56
2022/03/10 03:11:13;;;;;;;24.17;14.23;;;-3.50;99.90;;;;;;4971679;28;20081;-57
2022/03/10 03:13:38;;;;;;;23.20;13.18;;;-3.40;99.90;;;;;;4970838;28;20417;-57
2022/03/10 03:16:04;;;;;;;19.30;12.68;;;-3.50;99.90;;;;;;4971578;28;20031;-56
2022/03/10 03:18:30;;;;;;;18.00;13.05;;;-3.50;99.90;;;;;;4971570;28;20023;-54
2022/03/10 03:20:55;;;;;;;21.90;13.35;;;-3.60;99.90;;;;;;4971013;28;20038;-56
2022/03/10 03:23:23;;;;;;;20.08;12.82;;;-3.60;99.90;;;;;;4971843;28;20356;-57
2022/03/10 03:25:50;;;;;;;21.02;12.90;;;-3.60;99.90;;;;;;4970579;28;20035;-55
2022/03/10 03:28:16;;;;;;;21.58;12.32;;;-3.60;99.90;;;;;;4970927;28;20486;-57
2022/03/10 03:30:42;;;;;;;23.00;13.85;;;-3.60;99.90;;;;;;4971374;28;20023;-57
2022/03/10 03:33:07;;;;;;;23.85;13.32;;;-3.60;99.90;;;;;;4970766;28;20042;-55
2022/03/10 03:35:33;;;;;;;33.20;15.60;;;-3.60;99.90;;;;;;4971714;28;20419;-56
2022/03/10 03:37:58;;;;;;;23.95;14.23;;;-3.60;99.90;;;;;;4970746;28;20445;-56
2022/03/10 03:40:24;;;;;;;28.63;15.40;;;-3.60;99.90;;;;;;4971468;28;20027;-54
2022/03/10 03:42:50;;;;;;;27.13;14.65;;;-3.50;99.90;;;;;;4969491;28;20031;-58
2022/03/10 03:45:16;;;;;;;28.77;14.73;;;-3.50;99.90;;;;;;4971299;28;20118;-54
2022/03/10 03:47:42;;;;;;;23.80;15.27;;;-3.40;99.90;;;;;;4970872;28;20044;-55
2022/03/10 03:50:08;;;;;;;27.73;14.80;;;-3.40;99.90;;;;;;4970035;28;20027;-54
2022/03/10 03:52:34;;;;;;;27.05;15.68;;;-3.40;99.90;;;;;;4970749;28;20035;-53
2022/03/10 03:54:59;;;;;;;26.25;15.63;;;-3.40;99.90;;;;;;4970318;28;20038;-55
2022/03/10 03:57:25;;;;;;;21.67;13.80;;;-3.40;99.90;;;;;;4970508;28;20038;-55
2022/03/10 03:59:51;;;;;;;18.90;13.00;;;-3.40;99.90;;;;;;4970235;28;20486;-52
2022/03/10 04:02:16;;;;;;;22.92;14.45;;;-3.40;99.90;;;;;;4970124;28;20023;-53
2022/03/10 04:04:42;;;;;;;19.95;13.77;;;-3.40;99.90;;;;;;4970875;28;20121;-55
2022/03/10 04:07:08;;;;;;;21.63;13.07;;;-3.40;99.90;;;;;;4969984;28;20046;-55
2022/03/10 04:09:33;;;;;;;21.75;13.45;;;-3.50;99.90;;;;;;4970876;28;20058;-55
2022/03/10 04:12:00;;;;;;;24.38;14.27;;;-3.50;99.90;;;;;;4969534;28;20027;-54
2022/03/10 04:14:26;;;;;;;22.35;13.40;;;-3.60;99.90;;;;;;4971076;28;20022;-55
2022/03/10 04:16:51;;;;;;;23.05;14.57;;;-3.60;99.90;;;;;;4969972;28;20394;-54
2022/03/10 04:19:17;;;;;;;20.02;12.70;;;-3.70;99.90;;;;;;4970420;28;20090;-54
2022/03/10 04:21:43;;;;;;;22.48;13.35;;;-3.70;99.90;;;;;;4970148;28;20534;-54
2022/03/10 04:24:09;;;;;;;19.65;12.98;;;-3.80;99.90;;;;;;4970162;28;20039;-55
2022/03/10 04:26:34;;;;;;;29.00;17.17;;;-3.80;99.90;;;;;;4969443;28;20065;-55
2022/03/10 04:29:00;;;;;;;25.42;17.50;;;-3.80;99.90;;;;;;4970196;28;20490;-55
2022/03/10 04:31:26;;;;;;;18.85;12.32;;;-3.80;99.90;;;;;;4970050;28;20034;-54
2022/03/10 04:33:51;;;;;;;20.98;14.07;;;-3.80;99.90;;;;;;4969794;28;20027;-55
2022/03/10 04:36:17;;;;;;;19.92;13.45;;;-3.80;99.90;;;;;;4970207;28;20394;-54
2022/03/10 04:38:42;;;;;;;23.98;14.85;;;-3.80;99.90;;;;;;4969577;28;20030;-55
2022/03/10 04:41:08;;;;;;;26.27;14.68;;;-3.80;99.90;;;;;;4969034;28;20549;-53
2022/03/10 04:43:33;;;;;;;23.42;14.05;;;-3.80;99.90;;;;;;4969640;28;20027;-55
2022/03/10 04:45:59;;;;;;;20.55;12.10;;;-3.90;99.90;;;;;;4969570;28;20023;-54
2022/03/10 04:48:28;;;;;;;24.42;15.05;;;-3.90;99.90;;;;;;4969992;28;20023;-53
2022/03/10 04:50:53;;;;;;;22.75;14.13;;;-3.90;99.90;;;;;;4969749;28;20035;-54
2022/03/10 04:53:19;;;;;;;25.15;14.50;;;-3.80;99.90;;;;;;4970079;28;20027;-54
2022/03/10 04:55:45;;;;;;;18.02;12.20;;;-3.80;99.90;;;;;;4969883;28;20098;-53
2022/03/10 04:58:11;;;;;;;22.17;13.07;;;-3.70;99.90;;;;;;4969400;28;20483;-55
2022/03/10 05:00:36;;;;;;;19.20;13.10;;;-3.80;99.90;;;;;;4969325;28;20039;-53
2022/03/10 05:03:02;;;;;;;22.65;13.65;;;-3.80;99.90;;;;;;4968476;28;20042;-54
2022/03/10 05:05:28;;;;;;;21.27;12.93;;;-3.80;99.90;;;;;;4969920;28;20481;-54
2022/03/10 05:07:53;;;;;;;18.73;12.60;;;-3.90;99.90;;;;;;4969040;28;20034;-53
2022/03/10 05:10:19;;;;;;;17.83;13.35;;;-4.00;99.90;;;;;;4969318;28;20041;-54
2022/03/10 05:12:48;;;;;;;31.55;20.50;;;-4.00;99.90;;;;;;4969119;28;20505;-54
2022/03/10 05:15:18;;;;;;;25.02;14.75;;;-4.10;99.90;;;;;;4969212;28;20055;-55
2022/03/10 05:17:43;;;;;;;19.52;13.20;;;-4.20;99.90;;;;;;4969893;28;20466;-53
2022/03/10 05:20:09;;;;;;;20.85;13.00;;;-4.20;99.90;;;;;;4969499;28;20019;-55
2022/03/10 05:23:02;;;;;;;22.30;12.38;;;-4.20;99.90;;;;;;4969404;28;20086;-53
2022/03/10 05:25:35;;;;;;;37.53;16.02;;;-4.30;99.90;;;;;;4967994;28;20060;-54
2022/03/10 05:28:01;;;;;;;27.25;17.00;;;-4.30;99.90;;;;;;4969327;28;20184;-53
2022/03/10 05:30:27;;;;;;;26.83;16.98;;;-4.30;99.90;;;;;;4969673;28;20031;-52
2022/03/10 05:32:53;;;;;;;23.58;13.20;;;-4.30;99.90;;;;;;4968869;28;20026;-53
2022/03/10 05:35:19;;;;;;;25.92;14.88;;;-4.30;99.90;;;;;;4969259;28;20489;-54
2022/03/10 05:37:46;;;;;;;24.65;13.23;;;-4.30;99.90;;;;;;4969066;28;20038;-53
2022/03/10 05:40:20;;;;;;;22.27;13.30;;;-4.30;99.90;;;;;;4969555;28;20090;-55
2022/03/10 05:42:47;;;;;;;25.45;14.05;;;-4.40;99.90;;;;;;4967923;28;20031;-54
2022/03/10 05:45:19;;;;;;;20.92;12.68;;;-4.40;99.90;;;;;;4969801;28;20121;-53
2022/03/10 05:47:45;;;;;;;18.35;14.85;;;-4.40;99.90;;;;;;4968617;28;20023;-54
2022/03/10 05:50:11;;;;;;;20.08;13.55;;;-4.40;99.90;;;;;;4969989;28;20022;-54
2022/03/10 05:52:37;;;;;;;22.80;14.60;;;-4.40;99.90;;;;;;4969263;28;20521;-53
2022/03/10 05:55:04;;;;;;;22.92;14.45;;;-4.40;99.90;;;;;;4968511;28;20039;-54
2022/03/10 05:57:29;;;;;;;22.33;11.60;;;-4.30;99.90;;;;;;4969369;28;20027;-53
2022/03/10 05:59:55;;;;;;;20.60;13.80;;;-4.30;99.90;;;;;;4968434;28;20050;-55
2022/03/10 06:02:20;;;;;;;18.13;13.07;;;-4.20;99.90;;;;;;4968586;28;20026;-55
2022/03/10 06:04:46;;;;;;;22.48;13.38;;;-4.10;99.90;;;;;;4969215;28;20081;-54
2022/03/10 06:07:12;;;;;;;25.30;13.35;;;-4.10;99.90;;;;;;4969028;28;20417;-54
2022/03/10 06:09:38;;;;;;;19.20;13.82;;;-4.00;99.90;;;;;;4969011;28;20038;-53
2022/03/10 06:12:04;;;;;;;19.20;13.07;;;-3.90;99.90;;;;;;4968836;28;20045;-55
2022/03/10 06:14:29;;;;;;;24.88;14.70;;;-3.80;99.90;;;;;;4972968;28;20125;-55
2022/03/10 06:16:55;;;;;;;23.85;14.25;;;-3.40;99.90;;;;;;4971678;28;20030;-54
2022/03/10 06:19:21;;;;;;;23.00;12.18;;;-2.40;99.90;;;;;;4972742;28;20030;-54
2022/03/10 06:21:48;;;;;;;17.48;11.48;;;-1.20;99.90;;;;;;4971340;28;20039;-55
2022/03/10 06:24:13;;;;;;;14.43;11.05;;;0.00;99.90;;;;;;4971898;28;20157;-56
2022/03/10 06:26:39;;;;;;;16.30;10.18;;;1.30;99.90;;;;;;4972396;28;20162;-54
2022/03/10 06:29:05;;;;;;;15.63;10.60;;;2.50;99.90;;;;;;4972259;28;20086;-54
2022/03/10 06:31:31;;;;;;;11.73;10.13;;;3.60;99.90;;;;;;4971832;28;20050;-55
2022/03/10 06:33:58;;;;;;;10.07;8.80;;;5.00;99.90;;;;;;4968292;28;20039;-54
2022/03/10 06:36:24;;;;;;;13.02;9.50;;;6.20;99.90;;;;;;4972784;28;20035;-54
2022/03/10 06:38:50;;;;;;;12.27;9.57;;;7.10;97.30;;;;;;4971662;28;20042;-55
2022/03/10 06:41:15;;;;;;;9.93;8.32;;;8.00;93.80;;;;;;4971918;28;20031;-55
2022/03/10 06:43:41;;;;;;;10.07;8.90;;;8.80;72.60;;;;;;4971656;28;20538;-54
2022/03/10 06:46:07;;;;;;;9.88;8.75;;;9.20;74.10;;;;;;4971397;28;20114;-56
2022/03/10 06:48:32;;;;;;;9.98;9.05;;;9.80;70.90;;;;;;4972150;28;20220;-57
2022/03/10 06:50:58;;;;;;;13.85;9.38;;;10.70;67.60;;;;;;4971270;28;20498;-54
2022/03/10 06:53:24;;;;;;;8.73;7.93;;;11.10;61.40;;;;;;4972237;28;20030;-56
2022/03/10 06:55:49;;;;;;;13.82;8.93;;;11.70;58.50;;;;;;4971014;28;20031;-54
2022/03/10 06:58:15;;;;;;;9.63;8.60;;;12.30;56.60;;;;;;4971634;28;20027;-56
2022/03/10 07:00:41;;;;;;;9.73;8.73;;;12.70;55.30;;;;;;4970871;28;20035;-55
2022/03/10 07:03:06;;;;;;;9.20;8.02;;;12.60;53.40;;;;;;4970373;28;20130;-56
2022/03/10 07:05:32;;;;;;;10.45;8.63;;;13.00;52.90;;;;;;4962799;28;20605;-54
2022/03/10 07:07:58;;;;;;;9.93;9.02;;;13.10;52.10;;;;;;4970908;28;20038;-54
2022/03/10 07:10:23;;;;;;;10.25;9.25;;;13.10;51.20;;;;;;4971723;28;20526;-57
2022/03/10 07:12:49;;;;;;;8.90;8.05;;;13.30;52.80;;;;;;4971019;28;20027;-59
2022/03/10 07:15:15;;;;;;;9.48;8.68;;;13.70;52.00;;;;;;4971577;28;20027;-57
2022/03/10 07:17:42;;;;;;;10.98;8.25;;;14.30;50.70;;;;;;4971050;28;20046;-58
2022/03/10 07:20:08;;;;;;;7.68;6.97;;;14.50;49.50;;;;;;4972760;28;20014;-58
2022/03/10 07:22:35;;;;;;;9.30;8.50;;;14.90;49.20;;;;;;4971049;28;20034;-57
2022/03/10 07:25:02;;;;;;;9.05;8.15;;;15.30;48.60;;;;;;4970871;28;20035;-59
2022/03/10 07:27:27;;;;;;;8.93;8.13;;;15.50;47.00;;;;;;4971534;28;20038;-58
2022/03/10 07:29:53;;;;;;;11.60;8.93;;;15.60;46.90;;;;;;4970203;28;20019;-58
2022/03/10 07:32:18;;;;;;;10.10;9.10;;;16.00;46.90;;;;;;4970746;28;20165;-57
2022/03/10 07:34:48;;;;;;;10.15;9.35;;;16.20;45.90;;;;;;4970686;28;20023;-56
2022/03/10 07:37:15;;;;;;;11.02;9.50;;;16.10;45.60;;;;;;4970871;28;20118;-57
2022/03/10 07:39:41;;;;;;;9.68;8.77;;;16.50;46.10;;;;;;4970956;28;20027;-59
2022/03/10 07:42:06;;;;;;;10.15;9.35;;;16.60;44.70;;;;;;4970144;28;20444;-56
2022/03/10 07:44:32;;;;;;;10.63;9.63;;;17.10;44.20;;;;;;4971226;28;20030;-56
2022/03/10 07:46:58;;;;;;;10.02;8.82;;;17.30;43.90;;;;;;4985019;28;20134;-56
2022/03/10 07:49:23;;;;;;;9.68;8.77;;;16.90;44.30;;;;;;4969764;28;20031;-56
2022/03/10 07:51:49;;;;;;;9.30;8.50;;;16.80;45.20;;;;;;4969761;28;20027;-59
2022/03/10 07:54:15;;;;;;;9.88;8.88;;;17.00;43.80;;;;;;4970634;28;20041;-58
2022/03/10 07:56:40;;;;;;;9.50;8.57;;;17.80;44.30;;;;;;4970445;28;20019;-57
2022/03/10 07:59:06;;;;;;;9.27;8.38;;;18.40;43.50;;;;;;4969241;28;20038;-58
2022/03/10 08:01:32;;;;;;;9.05;8.25;;;19.00;41.60;;;;;;4969172;28;20430;-59
2022/03/10 08:03:57;;;;;;;8.32;7.53;;;19.40;40.00;;;;;;4970234;28;20125;-57
2022/03/10 08:06:26;;;;;;;10.38;8.18;;;20.10;39.00;;;;;;4970993;28;20085;-59
2022/03/10 08:08:52;;;;;;;10.40;9.32;;;20.30;39.20;;;;;;4969803;28;20050;-58
2022/03/10 08:11:17;;;;;;;9.43;8.57;;;20.80;38.40;;;;;;4970815;28;20058;-57
2022/03/10 08:13:43;;;;;;;10.23;9.23;;;20.10;37.80;;;;;;4969905;28;20023;-57
2022/03/10 08:16:10;;;;;;;9.57;8.63;;;19.60;39.10;;;;;;4970106;28;20074;-57
2022/03/10 08:18:36;;;;;;;9.88;8.80;;;20.10;39.50;;;;;;4970511;28;20034;-57
2022/03/10 08:21:02;;;;;;;9.30;8.48;;;20.60;38.70;;;;;;4969649;28;20031;-59
2022/03/10 08:23:29;;;;;;;8.50;7.70;;;20.50;37.20;;;;;;4970769;28;20105;-57
2022/03/10 08:25:55;;;;;;;8.18;7.47;;;20.50;37.60;;;;;;4967882;28;20456;-59
2022/03/10 08:28:21;;;;;;;9.27;8.32;;;20.70;37.60;;;;;;4969595;28;20031;-58
2022/03/10 08:30:47;;;;;;;9.00;8.15;;;20.40;37.10;;;;;;4969749;28;20034;-60
2022/03/10 08:33:13;;;;;;;8.35;7.55;;;20.60;38.50;;;;;;4970146;28;20510;-57
2022/03/10 08:35:38;;;;;;;8.80;7.82;;;21.10;36.80;;;;;;4984782;28;20027;-57
2022/03/10 08:38:04;;;;;;;7.97;7.18;;;20.90;37.20;;;;;;4970199;28;20031;-57
2022/03/10 08:40:30;;;;;;;7.97;7.28;;;20.90;37.60;;;;;;4970165;28;20031;-59
2022/03/10 08:42:56;;;;;;;9.45;8.23;;;21.20;38.20;;;;;;4968913;28;20043;-57
2022/03/10 08:45:25;;;;;;;8.98;8.23;;;21.30;38.10;;;;;;4970095;28;20497;-57
2022/03/10 08:47:51;;;;;;;9.95;8.85;;;21.60;37.20;;;;;;4968694;28;20509;-57
2022/03/10 08:50:17;;;;;;;9.13;8.43;;;22.20;36.30;;;;;;4970224;28;20430;-59
2022/03/10 08:52:42;;;;;;;9.57;8.02;;;21.50;37.20;;;;;;4969221;28;20031;-59
2022/03/10 08:55:09;;;;;;;58.28;9.63;;;22.00;37.00;;;;;;4968581;28;20042;-59
2022/03/10 08:57:36;;;;;;;8.50;7.80;;;22.40;37.10;;;;;;4969147;28;20521;-57
2022/03/10 09:00:03;;;;;;;9.25;8.40;;;22.60;35.70;;;;;;4969468;28;20051;-58
2022/03/10 09:02:28;;;;;;;9.23;8.32;;;23.20;34.90;;;;;;4970093;28;20100;-60
2022/03/10 09:04:54;;;;;;;10.27;7.97;;;23.60;33.90;;;;;;4970229;28;20027;-58
2022/03/10 09:07:20;;;;;;;8.55;7.85;;;23.50;34.10;;;;;;4969113;28;20042;-58
2022/03/10 09:09:45;;;;;;;8.85;8.05;;;23.90;33.30;;;;;;4969740;28;20386;-60
2022/03/10 09:12:12;;;;;;;8.85;8.00;;;24.80;31.70;;;;;;4968485;28;20031;-57
2022/03/10 09:14:38;;;;;;;8.77;8.05;;;25.30;30.90;;;;;;4969617;28;20150;-59
2022/03/10 09:17:04;;;;;;;8.80;7.95;;;25.10;30.90;;;;;;4984398;28;20105;-58
2022/03/10 09:19:29;;;;;;;9.10;8.40;;;25.30;30.50;;;;;;4969843;28;20038;-60
2022/03/10 09:21:55;;;;;;;9.77;9.02;;;25.10;30.40;;;;;;4968762;28;20118;-61
2022/03/10 09:24:21;;;;;;;9.23;8.43;;;25.40;30.60;;;;;;4968995;28;20123;-59
2022/03/10 09:26:46;;;;;;;10.50;9.60;;;25.40;31.00;;;;;;4969649;28;20549;-58
2022/03/10 09:29:12;;;;;;;9.48;8.68;;;24.60;31.40;;;;;;4969477;28;20022;-57
2022/03/10 09:31:38;;;;;;;9.88;8.95;;;24.80;32.10;;;;;;4969382;28;20058;-58
2022/03/10 09:34:06;;;;;;;10.85;9.95;;;25.20;32.30;;;;;;4969253;28;20055;-58
2022/03/10 09:36:32;;;;;;;10.15;9.40;;;24.50;30.80;;;;;;4968394;28;20039;-59
2022/03/10 09:38:57;;;;;;;10.88;9.95;;;24.20;32.10;;;;;;4968505;28;20084;-57
2022/03/10 09:41:24;;;;;;;10.93;9.90;;;23.40;31.80;;;;;;4967585;28;20047;-59
2022/03/10 09:43:50;;;;;;;10.50;9.55;;;22.10;33.10;;;;;;4983462;28;20457;-59
2022/03/10 09:46:16;;;;;;;10.38;9.50;;;21.80;34.70;;;;;;4968883;28;20054;-57
2022/03/10 09:48:42;;;;;;;11.43;9.93;;;21.10;34.70;;;;;;4972375;28;20050;-59
2022/03/10 09:51:09;;;;;;;11.65;10.57;;;20.20;36.20;;;;;;4973271;28;20039;-60
2022/03/10 09:53:36;;;;;;;11.32;10.23;;;20.50;38.20;;;;;;4972728;28;20041;-58
2022/03/10 09:56:03;;;;;;;10.57;9.68;;;20.40;38.10;;;;;;4973674;28;20047;-57
2022/03/10 09:58:30;;;;;;;10.65;9.70;;;20.10;36.60;;;;;;4973016;28;20035;-59
2022/03/10 10:01:03;;;;;;;11.00;9.93;;;19.60;38.20;;;;;;4971856;28;20093;-56
2022/03/10 10:03:29;;;;;;;10.95;9.82;;;19.70;38.90;;;;;;4970746;28;20066;-60
2022/03/10 10:05:58;;;;;;;11.70;10.68;;;18.90;38.40;;;;;;4969504;28;21106;-58
2022/03/10 10:08:24;;;;;;;11.32;10.23;;;18.40;39.70;;;;;;4953474;28;20572;-57
2022/03/10 10:10:53;;;;;;;12.80;10.43;;;18.30;40.30;;;;;;4952399;28;20043;-57
2022/03/10 10:13:34;;;;;;;11.27;10.07;;;18.80;40.40;;;;;;4952087;28;20031;-59
2022/03/10 10:16:02;;;;;;;10.45;9.30;;;19.30;38.50;;;;;;4950894;28;20490;-58
2022/03/10 10:18:29;;;;;;;14.55;10.43;;;19.20;39.30;;;;;;4951685;28;20106;-57
2022/03/10 10:20:55;;;;;;;10.60;9.75;;;18.90;38.50;;;;;;4951611;28;20034;-57
2022/03/10 10:23:32;;;;;;;10.55;9.50;;;19.50;39.10;;;;;;4953177;28;20031;-57
2022/03/10 10:26:06;;;;;;;11.32;10.10;;;19.10;39.10;;;;;;4953165;28;20032;-57
2022/03/10 10:28:36;;;;;;;10.93;9.93;;;20.00;40.20;;;;;;4952464;28;20027;-58
2022/03/10 10:31:10;;;;;;;10.75;9.85;;;20.10;38.80;;;;;;4962953;28;20031;-59
2022/03/10 10:33:37;;;;;;;11.30;10.10;;;20.80;37.30;;;;;;4971700;28;20023;-56
2022/03/10 10:36:24;;;;;;;11.45;10.15;;;19.70;37.20;;;;;;4972505;28;20030;-58
2022/03/10 10:38:52;;;;;;;10.95;9.95;;;19.30;38.60;;;;;;4972267;28;20612;-57
2022/03/10 10:41:30;;;;;;;10.70;9.65;;;19.70;39.90;;;;;;4972629;28;20021;-56
2022/03/10 10:44:07;;;;;;;11.27;10.25;;;20.20;39.50;;;;;;4971153;28;20031;-57
2022/03/10 10:46:38;;;;;;;10.73;9.75;;;20.70;37.40;;;;;;4970899;28;20027;-57
2022/03/10 10:49:09;;;;;;;12.90;10.73;;;20.80;38.20;;;;;;4971655;28;20573;-57
2022/03/10 10:51:44;;;;;;;11.35;10.32;;;21.30;37.10;;;;;;4971899;28;20027;-55
2022/03/10 10:54:27;;;;;;;12.40;9.88;;;21.90;36.80;;;;;;4972229;28;20065;-57
2022/03/10 10:56:58;;;;;;;11.23;10.15;;;22.10;36.60;;;;;;4972524;28;20494;-57
2022/03/10 10:59:39;;;;;;;;;;;21.90;36.00;;;;;;4972736;28;20046;-57
2022/03/10 11:02:18;;;;;;;9.85;8.93;;;21.80;36.30;;;;;;4940656;28;20366;-60
2022/03/10 11:04:49;;;;;;;10.48;9.20;;;21.70;36.50;;;;;;4969742;28;20046;-58
2022/03/10 11:07:16;;;;;;;10.57;9.65;;;21.50;34.60;;;;;;4970724;28;20502;-57
2022/03/10 11:09:43;;;;;;;11.75;10.55;;;21.10;35.10;;;;;;4971354;28;20482;-57
2022/03/10 11:12:13;;;;;;;10.95;9.93;;;20.40;35.20;;;;;;4971656;28;20039;-56
2022/03/10 11:14:39;;;;;;;10.27;9.25;;;20.40;37.40;;;;;;4971112;28;20165;-58
2022/03/10 11:17:05;;;;;;;10.90;9.90;;;19.90;35.70;;;;;;4971943;28;20037;-57
2022/03/10 11:19:39;;;;;;;10.90;9.60;;;19.60;36.60;;;;;;4971282;28;20019;-57
2022/03/10 11:22:35;;;;;;;10.20;9.20;;;19.30;38.20;;;;;;4969911;28;20133;-57
2022/03/10 11:25:33;;;;;;;9.48;8.25;;;19.70;37.70;;;;;;4971078;28;20081;-58
2022/03/10 11:28:03;;;;;;;12.32;9.57;;;20.30;37.20;;;;;;4971741;28;20398;-57
2022/03/10 11:30:32;;;;;;;9.38;8.57;;;20.20;35.90;;;;;;4971094;28;20114;-58
2022/03/10 11:33:16;;;;;;;10.45;9.55;;;19.70;36.10;;;;;;4971037;28;20386;-57
2022/03/10 11:35:50;;;;;;;9.57;8.68;;;18.80;37.40;;;;;;4970855;28;20385;-56
2022/03/10 11:38:17;;;;;;;10.57;9.57;;;18.80;38.70;;;;;;4970834;28;20015;-58
2022/03/10 11:40:56;;;;;;;13.07;9.52;;;18.60;38.90;;;;;;4971214;28;20077;-58
2022/03/10 11:43:31;;;;;;;10.30;8.95;;;17.90;39.90;;;;;;4970619;28;20034;-60
2022/03/10 11:46:32;;;;;;;10.63;9.52;;;17.60;40.30;;;;;;4971194;28;20038;-59
2022/03/10 11:49:08;;;;;;;;;;;18.40;41.60;;;;;;4987373;28;20026;-57
2022/03/10 11:51:44;;;;;;;14.90;8.63;;;18.70;40.10;;;;;;4972826;28;19973;-57
2022/03/10 11:54:09;;;;;;;16.50;10.80;;;19.30;40.40;;;;;;4970332;28;20129;-59
2022/03/10 11:56:44;;;;;;;12.23;10.65;;;18.80;37.90;;;;;;4969439;28;20406;-57
2022/03/10 11:59:22;;;;;;;10.57;9.52;;;18.60;38.90;;;;;;4969497;28;20039;-58
2022/03/10 12:01:48;;;;;;;11.40;10.38;;;18.00;40.00;;;;;;4969148;28;20034;-56
2022/03/10 12:04:17;;;;;;;9.82;8.18;;;18.30;41.60;;;;;;4970636;28;20035;-57
2022/03/10 12:06:55;;;;;;;10.90;9.30;;;18.30;43.10;;;;;;4969014;28;20038;-56
2022/03/10 12:09:33;;;;;;;11.30;10.20;;;18.70;41.10;;;;;;4970390;28;20039;-60
2022/03/10 12:12:21;;;;;;;10.98;9.85;;;19.20;39.80;;;;;;4969816;28;20041;-56
2022/03/10 12:14:47;;;;;;;10.55;9.52;;;19.30;38.60;;;;;;4970713;28;20011;-58
2022/03/10 12:17:44;;;;;;;9.70;8.82;;;19.00;39.50;;;;;;4970658;28;20369;-57
2022/03/10 12:20:12;;;;;;;9.98;8.98;;;19.40;39.90;;;;;;4970053;28;20026;-57
2022/03/10 12:22:38;;;;;;;9.65;8.75;;;19.10;38.20;;;;;;4969597;28;20124;-59
2022/03/10 12:25:20;;;;;;;9.25;8.45;;;18.90;39.10;;;;;;4969154;28;20716;-57
2022/03/10 12:27:56;;;;;;;9.93;8.93;;;18.90;40.10;;;;;;4969713;28;20063;-58
2022/03/10 12:30:27;;;;;;;9.73;8.55;;;18.90;40.90;;;;;;4966621;28;20494;-56
2022/03/10 12:32:54;;;;;;;9.50;8.50;;;18.20;39.60;;;;;;4969486;28;20058;-59
2022/03/10 12:35:25;;;;;;;18.08;8.73;;;17.90;40.60;;;;;;4971058;28;20019;-64
2022/03/10 12:37:51;;;;;;;10.20;9.20;;;17.30;42.30;;;;;;4968749;28;20069;-59
2022/03/10 12:40:36;;;;;;;9.73;8.73;;;16.90;43.20;;;;;;4970081;28;20055;-56
2022/03/10 12:43:09;;;;;;;9.65;8.73;;;16.60;43.40;;;;;;4968005;28;20046;-56
2022/03/10 12:45:46;;;;;;;9.25;8.45;;;16.30;42.80;;;;;;4970175;28;20039;-59